createdAt,value
2022-11-22T00:01:26.230Z,11.50
2022-11-22T00:03:38.958Z,10.80
2022-11-22T00:05:52.354Z,12.70
2022-11-22T00:08:05.202Z,11.60
2022-11-22T00:10:19.237Z,12.70
2022-11-22T00:12:31.898Z,11.60
2022-11-22T00:14:45.033Z,10.90
2022-11-22T00:16:58.045Z,10.60
2022-11-22T00:19:10.706Z,11.40
2022-11-22T00:21:24.329Z,11.90
2022-11-22T00:23:37.298Z,11.80
2022-11-22T00:25:51.078Z,13.30
2022-11-22T00:28:03.679Z,11.40
2022-11-22T00:30:16.996Z,12.40
2022-11-22T00:32:30.027Z,11.60
2022-11-22T00:34:43.257Z,11.00
2022-11-22T00:36:56.959Z,10.80
2022-11-22T00:39:09.608Z,10.60
2022-11-22T00:41:22.439Z,11.20
2022-11-22T00:43:35.196Z,12.20
2022-11-22T00:45:48.650Z,11.70
2022-11-22T00:48:01.387Z,11.90
2022-11-22T00:50:15.645Z,11.30
2022-11-22T00:52:29.046Z,12.10
2022-11-22T00:54:41.877Z,10.50
2022-11-22T00:56:54.718Z,10.60
2022-11-22T00:59:07.813Z,10.70
2022-11-22T01:01:20.651Z,10.50
2022-11-22T01:03:33.728Z,10.70
2022-11-22T01:05:46.450Z,10.60
2022-11-22T01:07:59.617Z,9.80
2022-11-22T01:10:13.665Z,10.80
2022-11-22T01:12:26.592Z,10.40
2022-11-22T01:14:39.103Z,10.40
2022-11-22T01:16:52.026Z,9.70
2022-11-22T01:19:05.074Z,9.90
2022-11-22T01:21:18.175Z,9.80
2022-11-22T01:23:31.917Z,10.80
2022-11-22T01:25:47.482Z,10.40
2022-11-22T01:28:00.792Z,10.10
2022-11-22T01:30:15.111Z,10.40
2022-11-22T01:32:28.238Z,10.70
2022-11-22T01:34:40.835Z,11.80
2022-11-22T01:36:53.646Z,10.70
2022-11-22T01:39:07.449Z,11.30
2022-11-22T01:41:20.178Z,10.20
2022-11-22T01:43:33.616Z,10.30
2022-11-22T01:45:50.399Z,9.70
2022-11-22T01:48:05.272Z,11.10
2022-11-22T01:50:21.961Z,10.90
2022-11-22T01:52:37.762Z,9.90
2022-11-22T01:54:52.937Z,10.90
2022-11-22T01:57:14.013Z,10.40
2022-11-22T01:59:30.135Z,9.80
2022-11-22T02:01:43.081Z,8.90
2022-11-22T02:03:59.619Z,9.80
2022-11-22T02:06:13.272Z,10.50
2022-11-22T02:08:31.813Z,10.30
2022-11-22T02:10:53.679Z,10.10
2022-11-22T02:13:06.987Z,9.80
2022-11-22T02:15:19.522Z,10.00
2022-11-22T02:17:33.425Z,10.50
2022-11-22T02:19:49.738Z,9.80
2022-11-22T02:22:10.339Z,9.50
2022-11-22T02:24:29.843Z,8.40
2022-11-22T02:26:43.482Z,9.40
2022-11-22T02:28:59.830Z,10.00
2022-11-22T02:31:35.679Z,10.40
2022-11-22T02:33:48.324Z,11.70
2022-11-22T02:36:01.741Z,9.70
2022-11-22T02:38:18.815Z,9.20
2022-11-22T02:40:35.531Z,10.60
2022-11-22T02:42:51.625Z,10.40
2022-11-22T02:45:04.820Z,9.40
2022-11-22T02:47:17.327Z,9.10
2022-11-22T02:49:30.937Z,10.30
2022-11-22T02:51:43.637Z,10.40
2022-11-22T02:53:57.918Z,10.70
2022-11-22T02:56:11.056Z,8.90
2022-11-22T02:58:25.324Z,9.60
2022-11-22T03:00:39.462Z,10.80
2022-11-22T03:02:52.514Z,10.70
2022-11-22T03:05:05.331Z,10.90
2022-11-22T03:07:18.595Z,10.00
2022-11-22T03:09:31.887Z,10.40
2022-11-22T03:11:44.617Z,9.90
2022-11-22T03:13:58.000Z,9.90
2022-11-22T03:16:11.300Z,10.10
2022-11-22T03:18:24.228Z,10.10
2022-11-22T03:20:38.185Z,10.70
2022-11-22T03:22:51.242Z,10.20
2022-11-22T03:25:04.251Z,11.60
2022-11-22T03:27:17.562Z,9.40
2022-11-22T03:29:30.860Z,10.40
2022-11-22T03:31:44.156Z,9.90
2022-11-22T03:33:57.088Z,11.30
2022-11-22T03:36:10.112Z,8.80
2022-11-22T03:38:22.825Z,10.10
2022-11-22T03:40:35.505Z,11.30
2022-11-22T03:42:48.352Z,11.10
2022-11-22T03:45:01.565Z,10.80
2022-11-22T03:47:14.387Z,11.00
2022-11-22T03:49:27.411Z,10.20
2022-11-22T03:51:40.265Z,9.90
2022-11-22T03:53:52.947Z,11.30
2022-11-22T03:56:07.173Z,10.80
2022-11-22T03:58:19.796Z,10.50
2022-11-22T04:00:33.409Z,10.50
2022-11-22T04:02:45.802Z,10.20
2022-11-22T04:04:58.756Z,10.20
2022-11-22T04:07:11.658Z,10.60
2022-11-22T04:09:24.557Z,9.80
2022-11-22T04:11:37.630Z,9.70
2022-11-22T04:14:07.725Z,8.80
2022-11-22T04:16:20.625Z,10.20
2022-11-22T04:18:34.376Z,11.50
2022-11-22T04:21:03.333Z,11.00
2022-11-22T04:23:17.309Z,10.80
2022-11-22T04:25:30.818Z,10.00
2022-11-22T04:27:43.606Z,11.10
2022-11-22T04:29:56.680Z,10.70
2022-11-22T04:32:25.887Z,11.50
2022-11-22T04:34:39.503Z,10.70
2022-11-22T04:36:52.412Z,10.60
2022-11-22T04:39:05.663Z,12.10
2022-11-22T04:41:18.720Z,11.60
2022-11-22T04:43:49.090Z,10.70
2022-11-22T04:46:01.898Z,11.20
2022-11-22T04:48:15.371Z,10.60
2022-11-22T04:50:44.770Z,10.70
2022-11-22T04:52:59.356Z,10.30
2022-11-22T04:55:12.904Z,12.10
2022-11-22T04:57:25.697Z,10.80
2022-11-22T04:59:38.418Z,11.20
2022-11-22T05:01:51.257Z,9.80
2022-11-22T05:04:03.917Z,11.30
2022-11-22T05:06:18.840Z,11.20
2022-11-22T05:08:31.542Z,11.10
2022-11-22T05:11:00.568Z,10.40
2022-11-22T05:13:14.034Z,10.70
2022-11-22T05:15:26.603Z,11.10
2022-11-22T05:17:39.666Z,11.30
2022-11-22T05:19:52.818Z,11.20
2022-11-22T05:22:06.917Z,10.40
2022-11-22T05:24:19.494Z,10.70
2022-11-22T05:26:33.549Z,11.60
2022-11-22T05:28:45.859Z,10.70
2022-11-22T05:30:58.126Z,10.70
2022-11-22T05:33:10.917Z,10.30
2022-11-22T05:35:23.306Z,11.50
2022-11-22T05:37:36.950Z,11.60
2022-11-22T05:39:49.769Z,11.00
2022-11-22T05:42:02.499Z,11.20
2022-11-22T05:44:15.022Z,10.40
2022-11-22T05:46:29.357Z,12.90
2022-11-22T05:48:43.737Z,10.90
2022-11-22T05:50:56.995Z,11.10
2022-11-22T05:53:10.206Z,10.90
2022-11-22T05:55:22.949Z,11.10
2022-11-22T05:57:35.886Z,10.70
2022-11-22T05:59:48.493Z,11.40
2022-11-22T06:02:01.365Z,10.10
2022-11-22T06:04:14.082Z,11.50
2022-11-22T06:06:27.064Z,8.50
2022-11-22T06:08:42.086Z,11.30
2022-11-22T06:10:55.013Z,11.20
2022-11-22T06:13:10.323Z,11.00
2022-11-22T06:15:23.039Z,12.30
2022-11-22T06:17:35.604Z,11.70
2022-11-22T06:19:50.160Z,13.90
2022-11-22T06:22:03.226Z,11.90
2022-11-22T06:24:17.116Z,12.80
2022-11-22T06:26:33.540Z,12.10
2022-11-22T06:28:51.283Z,12.00
2022-11-22T06:31:09.121Z,11.50
2022-11-22T06:33:21.503Z,11.50
2022-11-22T06:35:34.086Z,13.00
2022-11-22T06:37:46.659Z,12.70
2022-11-22T06:39:59.345Z,12.30
2022-11-22T06:42:12.657Z,12.50
2022-11-22T06:44:25.359Z,13.30
2022-11-22T06:46:38.550Z,13.20
2022-11-22T06:48:52.005Z,12.90
2022-11-22T06:51:07.437Z,12.50
2022-11-22T06:53:45.251Z,12.50
2022-11-22T06:55:58.214Z,11.90
2022-11-22T06:58:14.705Z,11.80
2022-11-22T07:00:27.466Z,11.40
2022-11-22T07:02:41.458Z,13.20
2022-11-22T07:05:23.285Z,11.50
2022-11-22T07:07:26.920Z,12.20
2022-11-22T07:09:39.459Z,12.30
2022-11-22T07:11:53.210Z,11.00
2022-11-22T07:14:08.940Z,11.90
2022-11-22T07:16:23.667Z,11.30
2022-11-22T07:18:37.139Z,12.40
2022-11-22T07:20:49.988Z,11.70
2022-11-22T07:23:02.989Z,11.80
2022-11-22T07:25:16.602Z,10.40
2022-11-22T07:27:29.562Z,11.60
2022-11-22T07:29:42.318Z,11.80
2022-11-22T07:31:55.906Z,12.80
2022-11-22T07:34:09.011Z,11.90
2022-11-22T07:36:22.721Z,11.70
2022-11-22T07:38:35.686Z,12.20
2022-11-22T07:40:50.065Z,10.90
2022-11-22T07:43:02.968Z,9.20
2022-11-22T07:45:16.596Z,11.50
2022-11-22T07:47:29.042Z,10.80
2022-11-22T07:49:42.090Z,11.20
2022-11-22T07:51:54.982Z,11.30
2022-11-22T07:54:08.092Z,11.50
2022-11-22T07:56:21.663Z,10.60
2022-11-22T07:58:34.701Z,10.90
2022-11-22T08:00:47.774Z,11.70
2022-11-22T08:03:01.096Z,10.70
2022-11-22T08:05:14.796Z,11.10
2022-11-22T08:07:27.841Z,10.20
2022-11-22T08:09:41.980Z,11.30
2022-11-22T08:11:54.823Z,11.50
2022-11-22T08:14:07.792Z,11.40
2022-11-22T08:16:21.192Z,12.50
2022-11-22T08:18:33.808Z,11.10
2022-11-22T08:20:47.016Z,11.40
2022-11-22T08:22:59.708Z,10.90
2022-11-22T08:25:15.274Z,12.40
2022-11-22T08:27:28.642Z,11.30
2022-11-22T08:29:41.844Z,11.80
2022-11-22T08:31:54.708Z,10.60
2022-11-22T08:34:07.470Z,11.50
2022-11-22T08:36:20.178Z,12.70
2022-11-22T08:38:33.390Z,13.20
2022-11-22T08:40:47.715Z,11.20
2022-11-22T08:43:01.465Z,12.50
2022-11-22T08:45:15.192Z,11.50
2022-11-22T08:47:27.916Z,11.70
2022-11-22T08:49:41.053Z,9.10
2022-11-22T08:51:53.950Z,12.50
2022-11-22T08:54:06.597Z,13.30
2022-11-22T08:56:19.796Z,12.10
2022-11-22T08:58:33.229Z,12.50
2022-11-22T09:00:46.463Z,12.50
2022-11-22T09:02:59.424Z,11.90
2022-11-22T09:05:13.430Z,9.40
2022-11-22T09:09:59.361Z,13.40
2022-11-22T09:12:12.998Z,13.20
2022-11-22T09:14:25.583Z,11.60
2022-11-22T09:16:38.464Z,11.00
2022-11-22T09:18:51.919Z,13.00
2022-11-22T09:21:08.734Z,13.30
2022-11-22T09:23:22.539Z,12.20
2022-11-22T09:25:35.242Z,12.50
2022-11-22T09:27:47.987Z,11.80
2022-11-22T09:30:01.371Z,10.90
2022-11-22T09:32:17.047Z,11.10
2022-11-22T09:34:29.986Z,12.80
2022-11-22T09:36:42.548Z,12.10
2022-11-22T09:38:57.435Z,12.50
2022-11-22T09:41:27.489Z,12.70
2022-11-22T09:43:50.857Z,11.70
2022-11-22T09:46:26.788Z,13.80
2022-11-22T09:49:02.422Z,11.50
2022-11-22T09:51:20.002Z,11.70
2022-11-22T09:53:38.518Z,13.30
2022-11-22T09:55:52.787Z,12.80
2022-11-22T09:58:14.587Z,13.20
2022-11-22T10:02:59.404Z,11.30
2022-11-22T10:05:22.602Z,11.00
2022-11-22T10:07:38.494Z,13.10
2022-11-22T10:09:57.986Z,12.00
2022-11-22T10:12:15.235Z,11.60
2022-11-22T10:14:38.111Z,12.50
2022-11-22T10:16:59.182Z,11.80
2022-11-22T10:19:18.684Z,12.80
2022-11-22T10:21:31.760Z,13.70
2022-11-22T10:23:46.299Z,12.10
2022-11-22T10:26:03.349Z,13.10
2022-11-22T10:28:26.102Z,11.80
2022-11-22T10:30:44.257Z,13.40
2022-11-22T10:33:08.405Z,13.20
2022-11-22T10:35:45.435Z,11.30
2022-11-22T10:38:07.924Z,12.30
2022-11-22T10:40:30.284Z,12.00
2022-11-22T10:43:00.887Z,12.00
2022-11-22T10:45:20.549Z,11.80
2022-11-22T10:47:46.240Z,13.80
2022-11-22T10:50:06.721Z,13.60
2022-11-22T10:52:28.770Z,13.20
2022-11-22T10:54:54.723Z,14.00
2022-11-22T10:57:17.704Z,12.20
2022-11-22T10:59:53.890Z,13.10
2022-11-22T11:02:18.945Z,13.50
2022-11-22T11:04:35.679Z,13.20
2022-11-22T11:07:11.199Z,13.40
2022-11-22T11:11:59.804Z,14.30
2022-11-22T11:14:22.399Z,13.30
2022-11-22T11:16:37.486Z,14.20
2022-11-22T11:18:55.550Z,13.90
2022-11-22T11:21:10.566Z,14.30
2022-11-22T11:23:23.297Z,13.90
2022-11-22T11:25:41.403Z,12.50
2022-11-22T11:27:54.467Z,13.90
2022-11-22T11:30:08.401Z,14.20
2022-11-22T11:32:22.920Z,13.40
2022-11-22T11:34:36.574Z,13.00
2022-11-22T11:36:49.684Z,11.70
2022-11-22T11:39:02.556Z,13.10
2022-11-22T11:41:28.129Z,12.50
2022-11-22T11:43:48.012Z,14.20
2022-11-22T11:46:10.559Z,13.70
2022-11-22T11:48:43.186Z,14.60
2022-11-22T11:50:55.992Z,14.60
2022-11-22T11:53:20.678Z,12.40
2022-11-22T11:55:38.072Z,12.80
2022-11-22T11:57:51.990Z,12.50
2022-11-22T12:00:07.629Z,12.40
2022-11-22T12:02:22.806Z,12.20
2022-11-22T12:04:38.469Z,11.70
2022-11-22T12:07:03.123Z,13.40
2022-11-22T12:09:34.350Z,12.40
2022-11-22T12:11:54.981Z,13.10
2022-11-22T12:14:37.588Z,11.80
2022-11-22T12:16:47.997Z,11.60
2022-11-22T12:19:07.228Z,12.00
2022-11-22T12:21:32.620Z,12.50
2022-11-22T12:24:08.000Z,12.80
2022-11-22T12:26:31.170Z,13.80
2022-11-22T12:28:44.431Z,13.70
2022-11-22T12:31:00.762Z,12.40
2022-11-22T12:33:19.979Z,12.70
2022-11-22T12:35:37.285Z,13.50
2022-11-22T12:37:57.192Z,14.60
2022-11-22T12:40:18.961Z,12.90
2022-11-22T12:42:36.168Z,13.40
2022-11-22T12:44:55.231Z,12.60
2022-11-22T12:47:14.642Z,12.50
2022-11-22T12:49:36.186Z,13.20
2022-11-22T12:51:54.209Z,13.50
2022-11-22T12:54:14.097Z,12.40
2022-11-22T12:56:33.621Z,14.40
2022-11-22T12:58:53.736Z,13.30
2022-11-22T13:01:16.842Z,12.40
2022-11-22T13:03:35.066Z,13.00
2022-11-22T13:05:52.552Z,12.30
2022-11-22T13:08:16.916Z,13.60
2022-11-22T13:10:39.514Z,13.20
2022-11-22T13:12:54.085Z,13.30
2022-11-22T13:15:07.874Z,13.40
2022-11-22T13:17:22.317Z,13.00
2022-11-22T13:19:38.818Z,15.10
2022-11-22T13:22:11.573Z,14.30
2022-11-22T13:24:42.616Z,14.30
2022-11-22T13:27:06.738Z,13.20
2022-11-22T13:29:25.237Z,12.50
2022-11-22T13:31:40.992Z,13.60
2022-11-22T13:34:04.727Z,14.80
2022-11-22T13:36:50.272Z,14.10
2022-11-22T13:39:04.307Z,12.40
2022-11-22T13:41:31.330Z,12.30
2022-11-22T13:44:01.640Z,12.10
2022-11-22T13:46:55.301Z,11.90
2022-11-22T13:49:48.622Z,14.60
2022-11-22T13:52:05.431Z,11.20
2022-11-22T13:54:53.998Z,13.10
2022-11-22T13:57:08.645Z,13.00
2022-11-22T13:59:22.035Z,12.60
2022-11-22T14:02:02.311Z,13.00
2022-11-22T14:04:40.063Z,14.70
2022-11-22T14:06:57.871Z,13.20
2022-11-22T14:09:46.892Z,13.60
2022-11-22T14:12:18.173Z,12.30
2022-11-22T14:14:40.774Z,10.80
2022-11-22T14:17:07.567Z,13.20
2022-11-22T14:19:35.487Z,11.40
2022-11-22T14:21:58.566Z,14.40
2022-11-22T14:24:19.417Z,11.40
2022-11-22T14:26:39.767Z,11.50
2022-11-22T14:29:33.778Z,11.40
2022-11-22T14:31:55.836Z,12.80
2022-11-22T14:34:26.734Z,11.70
2022-11-22T14:36:39.432Z,11.30
2022-11-22T14:38:52.552Z,15.50
2022-11-22T14:41:40.506Z,14.60
2022-11-22T14:44:05.153Z,13.80
2022-11-22T14:46:51.801Z,13.20
2022-11-22T14:49:03.561Z,14.90
2022-11-22T14:51:32.304Z,13.30
2022-11-22T14:53:54.298Z,14.40
2022-11-22T14:56:20.355Z,12.40
2022-11-22T14:58:37.087Z,14.20
2022-11-22T15:01:13.171Z,13.80
2022-11-22T15:09:12.789Z,14.80
2022-11-22T15:09:21.288Z,10.90
2022-11-22T15:12:28.230Z,12.80
2022-11-22T15:57:38.402Z,12.70
2022-11-22T15:59:59.207Z,14.10
2022-11-22T16:02:20.567Z,13.20
2022-11-22T16:04:36.937Z,13.80
2022-11-22T16:06:49.847Z,12.60
2022-11-22T16:09:05.877Z,13.60
2022-11-22T16:11:28.094Z,13.40
2022-11-22T16:13:41.623Z,12.70
2022-11-22T16:16:10.792Z,11.50
2022-11-22T16:18:30.254Z,13.60
2022-11-22T16:20:44.426Z,13.00
2022-11-22T16:23:21.227Z,12.20
2022-11-22T16:25:38.072Z,12.60
2022-11-22T16:27:53.400Z,12.10
2022-11-22T16:30:06.755Z,11.80
2022-11-22T16:32:20.901Z,11.40
2022-11-22T16:34:33.581Z,12.10
2022-11-22T16:36:46.761Z,11.00
2022-11-22T16:38:59.792Z,14.00
2022-11-22T16:41:23.104Z,19.20
2022-11-22T16:43:38.789Z,13.00
2022-11-22T16:45:52.038Z,13.80
2022-11-22T16:48:30.381Z,14.90
2022-11-22T16:50:38.188Z,20.10
2022-11-22T16:52:53.546Z,18.50
2022-11-22T16:55:06.760Z,11.00
2022-11-22T16:57:20.371Z,12.40
2022-11-22T16:59:33.451Z,14.80
2022-11-22T17:01:47.443Z,13.80
2022-11-22T17:04:02.325Z,22.40
2022-11-22T17:06:19.592Z,17.40
2022-11-22T17:08:32.244Z,15.60
2022-11-22T17:10:46.235Z,14.90
2022-11-22T17:12:59.690Z,14.50
2022-11-22T17:15:18.331Z,14.80
2022-11-22T17:17:31.582Z,24.10
2022-11-22T17:19:53.330Z,20.40
2022-11-22T17:22:10.144Z,19.00
2022-11-22T17:24:25.013Z,14.50
2022-11-22T17:26:37.892Z,16.60
2022-11-22T17:28:50.531Z,14.70
2022-11-22T17:31:03.931Z,24.00
2022-11-22T17:33:17.615Z,23.10
2022-11-22T17:35:35.775Z,19.60
2022-11-22T17:37:49.819Z,18.00
2022-11-22T17:40:02.862Z,13.90
2022-11-22T17:42:16.372Z,15.30
2022-11-22T17:44:29.660Z,15.90
2022-11-22T17:46:42.538Z,21.30
2022-11-22T17:48:59.090Z,18.30
2022-11-22T17:51:16.058Z,17.50
2022-11-22T17:53:28.965Z,18.90
2022-11-22T17:56:08.943Z,16.60
2022-11-22T17:58:16.679Z,15.60
2022-11-22T18:00:30.358Z,17.50
2022-11-22T18:02:44.380Z,16.20
2022-11-22T18:04:58.903Z,20.40
2022-11-22T18:07:11.874Z,16.10
2022-11-22T18:09:24.753Z,18.40
2022-11-22T18:11:37.693Z,19.40
2022-11-22T18:13:51.356Z,20.60
2022-11-22T18:16:07.165Z,14.30
2022-11-22T18:18:48.456Z,15.60
2022-11-22T18:20:57.596Z,24.70
2022-11-22T18:23:10.319Z,22.30
2022-11-22T18:25:23.230Z,21.90
2022-11-22T18:27:41.971Z,19.60
2022-11-22T18:29:55.212Z,15.40
2022-11-22T18:32:08.564Z,13.90
2022-11-22T18:34:21.423Z,17.10
2022-11-22T18:36:54.632Z,18.70
2022-11-22T18:39:08.693Z,13.70
2022-11-22T18:41:22.931Z,17.40
2022-11-22T18:43:36.120Z,19.90
2022-11-22T18:45:48.876Z,16.50
2022-11-22T18:48:03.898Z,16.10
2022-11-22T18:50:18.003Z,26.10
2022-11-22T18:52:35.330Z,17.60
2022-11-22T18:54:48.560Z,17.50
2022-11-22T18:57:01.440Z,18.50
2022-11-22T18:59:16.455Z,18.00
2022-11-22T19:01:30.272Z,18.10
2022-11-22T19:03:43.194Z,19.20
2022-11-22T19:05:56.473Z,14.10
2022-11-22T19:08:10.075Z,15.90
2022-11-22T19:10:23.378Z,20.90
2022-11-22T19:12:36.394Z,19.50
2022-11-22T19:14:49.079Z,18.30
2022-11-22T19:17:02.040Z,18.20
2022-11-22T19:19:16.121Z,17.40
2022-11-22T19:21:30.330Z,17.20
2022-11-22T19:23:43.824Z,16.60
2022-11-22T19:25:56.258Z,15.40
2022-11-22T19:28:09.123Z,16.30
2022-11-22T19:30:22.925Z,20.70
2022-11-22T19:32:35.481Z,16.20
2022-11-22T19:34:49.361Z,19.80
2022-11-22T19:37:02.233Z,15.70
2022-11-22T19:39:17.968Z,15.40
2022-11-22T19:41:32.006Z,15.20
2022-11-22T19:43:44.801Z,21.40
2022-11-22T19:46:03.318Z,18.90
2022-11-22T19:48:16.126Z,18.60
2022-11-22T19:50:29.085Z,20.10
2022-11-22T19:52:41.980Z,18.80
2022-11-22T19:54:55.052Z,20.00
2022-11-22T19:57:07.913Z,18.60
2022-11-22T19:59:21.511Z,17.40
2022-11-22T20:01:36.045Z,16.60
2022-11-22T20:03:54.455Z,21.40
2022-11-22T20:06:08.592Z,18.50
2022-11-22T20:08:21.604Z,18.40
2022-11-22T20:10:34.616Z,18.80
2022-11-22T20:12:48.338Z,20.20
2022-11-22T20:15:01.683Z,18.10
2022-11-22T20:17:15.387Z,18.40
2022-11-22T20:19:33.851Z,15.40
2022-11-22T20:21:50.495Z,15.10
2022-11-22T20:24:03.916Z,15.80
2022-11-22T20:26:18.652Z,24.30
2022-11-22T20:28:31.690Z,20.20
2022-11-22T20:30:44.256Z,18.70
2022-11-22T20:32:56.905Z,17.70
2022-11-22T20:35:10.810Z,19.00
2022-11-22T20:37:23.646Z,20.60
2022-11-22T20:39:38.436Z,19.90
2022-11-22T20:42:05.881Z,16.20
2022-11-22T20:44:25.931Z,16.50
2022-11-22T20:46:41.476Z,16.40
2022-11-22T20:48:56.792Z,14.10
2022-11-22T20:51:12.097Z,19.70
2022-11-22T20:53:25.548Z,19.80
2022-11-22T20:55:38.499Z,20.60
2022-11-22T20:57:52.047Z,17.30
2022-11-22T21:00:06.077Z,18.20
2022-11-22T21:02:18.989Z,17.40
2022-11-22T21:04:33.279Z,18.00
2022-11-22T21:06:46.379Z,18.20
2022-11-22T21:08:59.073Z,17.40
2022-11-22T21:11:13.452Z,16.10
2022-11-22T21:13:26.234Z,18.70
2022-11-22T21:15:40.352Z,17.90
2022-11-22T21:18:23.156Z,19.00
2022-11-22T21:20:26.908Z,16.20
2022-11-22T21:22:39.692Z,16.70
2022-11-22T21:24:52.189Z,16.20
2022-11-22T21:27:05.466Z,14.90
2022-11-22T21:29:18.597Z,14.90
2022-11-22T21:31:31.970Z,15.30
2022-11-22T21:33:46.587Z,14.60
2022-11-22T21:36:01.687Z,16.40
2022-11-22T21:38:16.500Z,16.10
2022-11-22T21:40:30.603Z,14.50
2022-11-22T21:42:45.669Z,16.70
2022-11-22T21:44:58.420Z,15.90
2022-11-22T21:47:11.589Z,11.60
2022-11-22T21:49:24.747Z,12.70
2022-11-22T21:51:37.364Z,11.90
2022-11-22T21:53:50.429Z,10.10
2022-11-22T21:56:04.960Z,11.80
2022-11-22T21:58:19.164Z,10.20
2022-11-22T22:00:32.529Z,9.30
2022-11-22T22:02:45.438Z,8.00
2022-11-22T22:04:58.337Z,9.50
2022-11-22T22:07:29.537Z,9.40
2022-11-22T22:09:43.955Z,8.40
2022-11-22T22:11:56.816Z,8.90
2022-11-22T22:14:09.473Z,6.70
2022-11-22T22:16:24.470Z,6.80
2022-11-22T22:18:40.869Z,6.40
2022-11-22T22:21:00.793Z,6.00
2022-11-22T22:23:13.629Z,7.50
2022-11-22T22:25:26.526Z,7.60
2022-11-22T22:27:39.946Z,7.10
2022-11-22T22:29:53.250Z,6.90
2022-11-22T22:32:10.371Z,6.60
2022-11-22T22:34:23.536Z,7.80
2022-11-22T22:36:36.359Z,5.90
2022-11-22T22:38:49.774Z,8.50
2022-11-22T22:41:03.575Z,7.80
2022-11-22T22:43:16.151Z,6.70
2022-11-22T22:45:29.013Z,6.40
2022-11-22T22:47:41.727Z,6.20
2022-11-22T22:49:54.848Z,6.30
2022-11-22T22:52:08.100Z,6.70
2022-11-22T22:54:21.309Z,6.10
2022-11-22T22:56:35.286Z,5.70
2022-11-22T22:58:48.469Z,4.80
2022-11-22T23:01:06.407Z,5.00
2022-11-22T23:03:19.592Z,4.90
2022-11-22T23:05:32.246Z,8.00
2022-11-22T23:07:45.351Z,6.10
2022-11-22T23:09:58.448Z,6.60
2022-11-22T23:12:15.513Z,6.90
2022-11-22T23:14:30.176Z,6.00
2022-11-22T23:16:43.979Z,5.00
2022-11-22T23:18:57.052Z,5.00
2022-11-22T23:21:12.271Z,4.40
2022-11-22T23:23:24.930Z,5.30
2022-11-22T23:25:39.027Z,5.80
2022-11-22T23:27:51.905Z,9.30
2022-11-22T23:30:04.927Z,7.40
2022-11-22T23:32:17.826Z,7.10
2022-11-22T23:34:31.865Z,7.20
2022-11-22T23:36:45.687Z,8.20
2022-11-22T23:38:59.174Z,9.30
2022-11-22T23:41:14.065Z,8.40
2022-11-22T23:43:26.777Z,10.30
2022-11-22T23:45:39.706Z,9.80
2022-11-22T23:47:56.301Z,9.50
2022-11-22T23:50:12.751Z,11.50
2022-11-22T23:52:25.569Z,13.10
2022-11-22T23:54:38.333Z,12.20
2022-11-22T23:56:50.856Z,11.30
2022-11-22T23:59:04.586Z,11.50
